createdAt,value
2023-02-11T00:03:21.291Z,0.60
2023-02-11T00:08:23.079Z,0.60
2023-02-11T00:13:25.227Z,0.50
2023-02-11T00:18:27.781Z,0.50
2023-02-11T00:23:29.664Z,0.50
2023-02-11T00:28:31.631Z,0.50
2023-02-11T00:33:33.484Z,0.50
2023-02-11T00:38:35.382Z,0.50
2023-02-11T00:43:37.915Z,0.40
2023-02-11T00:48:40.386Z,0.30
2023-02-11T00:53:42.389Z,0.20
2023-02-11T00:58:44.183Z,0.10
2023-02-11T01:03:46.137Z,0.10
2023-02-11T01:08:47.954Z,0.00
2023-02-11T01:13:50.137Z,0.00
2023-02-11T01:18:52.040Z,-0.10
2023-02-11T01:23:53.954Z,-0.10
2023-02-11T01:28:56.180Z,-0.10
2023-02-11T01:33:57.969Z,-0.10
2023-02-11T01:39:00.116Z,-0.20
2023-02-11T01:44:24.653Z,-0.20
2023-02-11T01:49:36.387Z,-0.30
2023-02-11T01:55:00.404Z,-0.40
2023-02-11T02:00:11.281Z,-0.40
2023-02-11T02:05:26.168Z,-0.50
2023-02-11T02:10:28.866Z,-0.50
2023-02-11T02:15:34.139Z,-0.50
2023-02-11T02:21:13.439Z,-0.60
2023-02-11T02:26:27.256Z,-0.60
2023-02-11T02:31:28.987Z,-0.60
2023-02-11T02:36:43.022Z,-0.60
2023-02-11T02:41:45.219Z,-0.60
2023-02-11T02:46:47.088Z,-0.60
2023-02-11T02:52:07.717Z,-0.70
2023-02-11T02:57:24.642Z,-0.80
2023-02-11T03:02:37.066Z,-1.00
2023-02-11T03:07:49.049Z,-1.10
2023-02-11T03:12:51.872Z,-1.00
2023-02-11T03:17:57.864Z,-0.90
2023-02-11T03:23:16.421Z,-0.70
2023-02-11T03:28:30.016Z,-0.60
2023-02-11T03:33:44.941Z,-0.60
2023-02-11T03:38:53.711Z,-0.40
2023-02-11T03:43:57.236Z,-0.40
2023-02-11T03:49:03.618Z,-0.30
2023-02-11T03:54:09.622Z,-0.30
2023-02-11T03:59:11.487Z,-0.30
2023-02-11T04:04:16.752Z,-0.40
2023-02-11T04:09:18.629Z,-0.40
2023-02-11T04:14:20.436Z,-0.30
2023-02-11T04:19:22.229Z,-0.30
2023-02-11T04:24:24.092Z,-0.30
2023-02-11T04:29:25.940Z,-0.20
2023-02-11T04:34:27.800Z,-0.10
2023-02-11T04:39:29.691Z,0.00
2023-02-11T04:44:31.614Z,0.10
2023-02-11T04:49:33.465Z,0.10
2023-02-11T04:54:36.079Z,0.10
2023-02-11T04:59:37.936Z,0.20
2023-02-11T05:04:40.205Z,0.30
2023-02-11T05:09:42.010Z,0.30
2023-02-11T05:14:43.800Z,0.30
2023-02-11T05:19:45.591Z,0.30
2023-02-11T05:24:47.438Z,0.30
2023-02-11T05:29:49.516Z,0.30
2023-02-11T05:34:51.313Z,0.30
2023-02-11T05:39:53.100Z,0.30
2023-02-11T05:44:54.895Z,0.20
2023-02-11T05:49:56.721Z,0.20
2023-02-11T05:54:58.874Z,0.10
2023-02-11T06:00:00.685Z,0.10
2023-02-11T06:05:02.576Z,0.20
2023-02-11T06:10:04.765Z,0.20
2023-02-11T06:15:07.016Z,0.20
2023-02-11T06:20:10.695Z,0.20
2023-02-11T06:25:13.282Z,0.20
2023-02-11T06:30:15.307Z,0.30
2023-02-11T06:35:17.202Z,0.30
2023-02-11T06:40:19.124Z,0.40
2023-02-11T06:45:21.101Z,0.50
2023-02-11T06:50:22.897Z,0.50
2023-02-11T06:55:24.764Z,0.70
2023-02-11T07:00:26.890Z,0.80
2023-02-11T07:05:28.774Z,0.90
2023-02-11T07:10:30.592Z,1.20
2023-02-11T07:15:32.628Z,1.30
2023-02-11T07:20:34.424Z,1.60
2023-02-11T07:25:36.496Z,1.80
2023-02-11T07:30:38.336Z,1.90
2023-02-11T07:35:42.600Z,2.00
2023-02-11T07:40:44.515Z,2.10
2023-02-11T07:45:46.294Z,2.20
2023-02-11T07:50:48.091Z,2.30
2023-02-11T07:55:50.542Z,2.30
2023-02-11T08:00:52.561Z,2.40
2023-02-11T08:05:54.479Z,2.50
2023-02-11T08:10:56.309Z,2.60
2023-02-11T08:15:58.141Z,2.60
2023-02-11T08:21:08.850Z,2.70
2023-02-11T08:26:21.859Z,2.80
2023-02-11T08:31:29.652Z,2.90
2023-02-11T08:36:36.597Z,2.90
2023-02-11T08:41:38.412Z,3.10
2023-02-11T08:46:40.378Z,3.40
2023-02-11T08:51:42.574Z,3.50
2023-02-11T08:56:44.564Z,3.60
2023-02-11T09:01:47.775Z,3.70
2023-02-11T09:06:49.693Z,3.70
2023-02-11T09:11:51.492Z,3.80
2023-02-11T09:16:53.718Z,3.90
2023-02-11T09:21:55.595Z,4.10
2023-02-11T09:26:57.383Z,4.10
2023-02-11T09:31:59.275Z,4.20
2023-02-11T09:37:01.460Z,4.20
2023-02-11T09:42:09.099Z,4.30
2023-02-11T09:47:33.198Z,4.30
2023-02-11T09:52:52.565Z,4.30
2023-02-11T09:57:55.726Z,4.40
2023-02-11T10:03:35.209Z,4.50
2023-02-11T10:09:04.833Z,4.60
2023-02-11T10:14:09.679Z,4.70
2023-02-11T10:19:21.150Z,4.80
2023-02-11T10:24:23.338Z,4.90
2023-02-11T10:29:39.026Z,4.90
2023-02-11T10:34:41.692Z,5.10
2023-02-11T10:39:43.661Z,5.10
2023-02-11T10:44:59.828Z,5.20
2023-02-11T10:50:03.687Z,5.30
2023-02-11T10:55:22.879Z,5.40
2023-02-11T11:00:24.854Z,5.50
2023-02-11T11:05:38.131Z,5.60
2023-02-11T11:10:45.881Z,5.60
2023-02-11T11:16:07.807Z,5.70
2023-02-11T11:21:34.612Z,5.70
2023-02-11T11:26:44.856Z,5.80
2023-02-11T11:31:59.400Z,5.80
2023-02-11T11:37:10.860Z,5.90
2023-02-11T11:42:27.576Z,5.90
2023-02-11T11:47:38.132Z,5.90
2023-02-11T11:52:48.082Z,5.80
2023-02-11T11:57:50.322Z,5.80
2023-02-11T12:03:04.209Z,5.90
2023-02-11T12:08:36.319Z,6.10
2023-02-11T12:13:52.369Z,6.30
2023-02-11T12:19:13.953Z,6.40
2023-02-11T12:24:49.824Z,6.50
2023-02-11T12:30:40.523Z,6.50
2023-02-11T12:36:10.049Z,6.50
2023-02-11T12:41:56.450Z,6.60
2023-02-11T12:47:03.044Z,6.70
2023-02-11T12:52:13.823Z,6.70
2023-02-11T12:57:22.653Z,6.70
2023-02-11T13:02:27.404Z,6.60
2023-02-11T13:07:39.898Z,6.50
2023-02-11T13:13:04.893Z,6.50
2023-02-11T13:18:37.045Z,6.60
2023-02-11T13:23:46.207Z,6.80
2023-02-11T13:29:12.706Z,6.80
2023-02-11T13:34:46.618Z,6.80
2023-02-11T13:40:01.828Z,6.90
2023-02-11T13:45:17.603Z,7.10
2023-02-11T13:50:29.249Z,7.20
2023-02-11T13:55:31.684Z,7.10
2023-02-11T14:00:41.817Z,7.00
2023-02-11T14:06:29.507Z,6.80
2023-02-11T14:11:35.203Z,6.60
2023-02-11T14:16:59.976Z,6.40
2023-02-11T14:22:11.868Z,6.20
2023-02-11T14:27:20.703Z,6.20
2023-02-11T14:32:45.883Z,6.10
2023-02-11T14:38:02.570Z,6.10
2023-02-11T14:43:14.262Z,6.10
2023-02-11T14:48:18.220Z,6.00
2023-02-11T14:53:25.070Z,5.90
2023-02-11T14:58:32.155Z,5.90
2023-02-11T15:03:36.794Z,5.80
2023-02-11T15:08:43.941Z,5.80
2023-02-11T15:13:49.806Z,5.70
2023-02-11T15:18:58.218Z,5.70
2023-02-11T15:24:01.451Z,5.60
2023-02-11T15:29:04.940Z,5.60
2023-02-11T15:34:08.967Z,5.50
2023-02-11T15:39:20.415Z,5.50
2023-02-11T15:44:30.324Z,5.40
2023-02-11T15:49:33.339Z,5.30
2023-02-11T15:54:35.171Z,5.30
2023-02-11T15:59:41.637Z,5.20
2023-02-11T16:05:05.406Z,5.10
2023-02-11T16:10:29.820Z,5.10
2023-02-11T16:15:34.541Z,5.00
2023-02-11T16:20:36.697Z,5.00
2023-02-11T16:25:42.303Z,4.90
2023-02-11T16:30:44.410Z,4.90
2023-02-11T16:35:47.688Z,4.80
2023-02-11T16:40:50.122Z,4.80
2023-02-11T16:45:52.512Z,4.80
2023-02-11T16:50:55.109Z,4.60
2023-02-11T16:55:57.429Z,4.60
2023-02-11T17:01:08.951Z,4.50
2023-02-11T17:06:11.806Z,4.40
2023-02-11T17:11:16.763Z,4.30
2023-02-11T17:16:21.626Z,4.30
2023-02-11T17:21:27.587Z,4.20
2023-02-11T17:26:30.703Z,4.30
2023-02-11T17:31:33.206Z,4.20
2023-02-11T17:36:35.328Z,4.20
2023-02-11T17:41:38.207Z,4.20
2023-02-11T17:46:40.152Z,4.20
2023-02-11T17:51:42.058Z,4.30
2023-02-11T17:56:44.780Z,4.40
2023-02-11T18:01:47.290Z,4.30
2023-02-11T18:06:50.264Z,4.30
2023-02-11T18:11:52.580Z,4.30
2023-02-11T18:16:54.506Z,4.30
2023-02-11T18:21:59.712Z,4.30
2023-02-11T18:27:02.912Z,4.30
2023-02-11T18:32:05.078Z,4.40
2023-02-11T18:37:07.013Z,4.30
2023-02-11T18:42:09.909Z,4.40
2023-02-11T18:47:11.775Z,4.40
2023-02-11T18:52:13.730Z,4.50
2023-02-11T18:57:15.656Z,4.50
2023-02-11T19:02:18.060Z,4.50
2023-02-11T19:07:19.958Z,4.50
2023-02-11T19:12:21.860Z,4.50
2023-02-11T19:17:23.878Z,4.50
2023-02-11T19:22:25.834Z,4.50
2023-02-11T19:27:27.692Z,4.50
2023-02-11T19:32:29.971Z,4.40
2023-02-11T19:37:31.898Z,4.50
2023-02-11T19:42:33.762Z,4.50
2023-02-11T19:47:35.913Z,4.50
2023-02-11T19:52:40.676Z,4.50
2023-02-11T19:57:42.735Z,4.50
2023-02-11T20:02:44.781Z,4.50
2023-02-11T20:07:46.617Z,4.50
2023-02-11T20:12:48.461Z,4.50
2023-02-11T20:17:51.038Z,4.50
2023-02-11T20:22:53.019Z,4.50
2023-02-11T20:27:55.017Z,4.50
2023-02-11T20:32:58.510Z,4.50
2023-02-11T20:38:00.831Z,4.60
2023-02-11T20:43:02.700Z,4.60
2023-02-11T20:48:04.595Z,4.60
2023-02-11T20:53:06.651Z,4.60
2023-02-11T20:58:09.271Z,4.60
2023-02-11T21:03:11.317Z,4.50
2023-02-11T21:08:13.212Z,4.60
2023-02-11T21:13:15.061Z,4.50
2023-02-11T21:18:17.072Z,4.50
2023-02-11T21:23:18.988Z,4.50
2023-02-11T21:28:26.081Z,4.50
2023-02-11T21:33:29.009Z,4.50
2023-02-11T21:38:31.203Z,4.50
2023-02-11T21:43:33.520Z,4.50
2023-02-11T21:48:35.503Z,4.50
2023-02-11T21:53:37.557Z,4.50
2023-02-11T21:58:39.525Z,4.60
2023-02-11T22:03:42.087Z,4.60
2023-02-11T22:08:43.987Z,4.70
2023-02-11T22:13:46.090Z,4.70
2023-02-11T22:18:48.218Z,4.70
2023-02-11T22:23:51.135Z,4.70
2023-02-11T22:28:53.753Z,4.70
2023-02-11T22:33:56.214Z,4.70
2023-02-11T22:39:03.898Z,4.70
2023-02-11T22:44:05.883Z,4.70
2023-02-11T22:49:07.787Z,4.70
2023-02-11T22:54:15.332Z,4.70
2023-02-11T22:59:17.727Z,4.70
2023-02-11T23:04:20.950Z,4.70
2023-02-11T23:09:22.913Z,4.70
2023-02-11T23:14:24.930Z,4.70
2023-02-11T23:19:27.270Z,4.70
2023-02-11T23:24:29.181Z,4.70
2023-02-11T23:29:31.016Z,4.70
2023-02-11T23:34:32.833Z,4.70
2023-02-11T23:39:34.836Z,4.70
2023-02-11T23:44:36.691Z,4.70
2023-02-11T23:49:38.580Z,4.70
2023-02-11T23:54:40.466Z,4.60
2023-02-11T23:59:43.208Z,4.60
